Time;durP1;ratioP1;P1;durP2;ratioP2;P2;SDS_P1;SDS_P2;PMS_P1;PMS_P2;Temp;Humidity;BMP_temperature;BMP_pressure;BME280_temperature;BME280_humidity;BME280_pressure;Samples;Min_cycle;Max_cycle;Signal;HPM_P1;HPM_P2
2022/12/13 00:01:32;;;;;;;32.37;16.30;;;;;;;-145.18;100.00;46660.41;5049688;28;20139;-71
2022/12/13 00:04:00;;;;;;;44.55;17.15;;;;;;;-145.18;100.00;46660.41;5040194;28;20073;-70
2022/12/13 00:06:26;;;;;;;36.05;17.02;;;;;;;-145.18;100.00;46660.41;5033598;28;20029;-70
2022/12/13 00:08:53;;;;;;;37.33;16.88;;;;;;;-145.18;100.00;46660.41;5033983;28;20034;-70
2022/12/13 00:11:19;;;;;;;46.42;17.75;;;;;;;-145.18;100.00;46660.41;5033781;28;20155;-70
2022/12/13 00:13:46;;;;;;;41.50;18.10;;;;;;;-145.18;100.00;46660.41;5043997;28;20037;-70
2022/12/13 00:16:14;;;;;;;46.53;17.92;;;;;;;-145.18;100.00;46660.41;5053668;28;20033;-70
2022/12/13 00:18:40;;;;;;;42.03;16.65;;;;;;;-145.18;100.00;46660.41;5053614;28;20074;-70
2022/12/13 00:21:13;;;;;;;41.57;16.27;;;;;;;-145.18;100.00;46660.41;5053548;28;20424;-70
2022/12/13 00:23:38;;;;;;;35.40;16.52;;;;;;;-145.18;100.00;46656.50;5044049;28;20041;-70
2022/12/13 00:26:05;;;;;;;34.40;16.03;;;;;;;-145.18;100.00;46660.41;5033398;28;20041;-70
2022/12/13 00:28:32;;;;;;;37.72;16.60;;;;;;;-145.18;100.00;46660.41;5033640;28;20025;-70
2022/12/13 00:31:01;;;;;;;36.90;16.67;;;;;;;-145.18;100.00;46660.41;5033525;28;20115;-70
2022/12/13 00:33:27;;;;;;;40.15;16.60;;;;;;;-145.18;100.00;46660.41;5040645;28;20037;-71
2022/12/13 00:35:52;;;;;;;34.42;15.07;;;;;;;-145.18;100.00;46660.41;5053314;28;20044;-71
2022/12/13 00:38:18;;;;;;;36.43;16.17;;;;;;;-145.18;100.00;46660.41;5053112;28;20021;-70
2022/12/13 00:40:43;;;;;;;38.43;16.63;;;;;;;-145.18;100.00;46660.41;5051944;28;20512;-71
2022/12/13 00:43:09;;;;;;;37.37;15.97;;;;;;;-145.18;100.00;46660.41;5037970;28;20441;-70
2022/12/13 00:45:34;;;;;;;32.53;15.47;;;;;;;-145.18;100.00;46660.41;5053509;28;20029;-70
2022/12/13 00:47:59;;;;;;;38.73;16.27;;;;;;;-145.18;100.00;46660.41;5053040;28;20076;-70
2022/12/13 00:50:25;;;;;;;35.73;16.20;;;;;;;-145.18;100.00;46660.41;5053135;28;20033;-70
2022/12/13 00:52:50;;;;;;;34.90;16.80;;;;;;;-145.18;100.00;46660.41;5049975;28;20041;-71
2022/12/13 00:55:16;;;;;;;35.37;15.50;;;;;;;-145.18;100.00;46660.41;5033218;28;20051;-71
2022/12/13 00:57:41;;;;;;;39.53;14.87;;;;;;;-145.18;100.00;46660.41;5032840;28;20048;-71
2022/12/13 01:00:07;;;;;;;42.27;15.67;;;;;;;-145.18;100.00;46660.41;5033013;28;20034;-70
2022/12/13 01:02:34;;;;;;;38.07;15.30;;;;;;;-145.18;100.00;46660.41;5050383;28;20128;-70
2022/12/13 01:04:59;;;;;;;29.73;14.43;;;;;;;-145.18;100.00;46660.41;5032430;28;20289;-70
2022/12/13 01:07:24;;;;;;;36.63;15.83;;;;;;;-145.18;100.00;46660.41;5032961;28;20406;-70
2022/12/13 01:09:50;;;;;;;38.57;16.27;;;;;;;-145.18;100.00;46635.00;5032855;28;20037;-70
2022/12/13 01:12:16;;;;;;;40.17;16.53;;;;;;;-145.18;100.00;46638.91;5032606;28;20041;-70
2022/12/13 01:14:41;;;;;;;37.90;16.17;;;;;;;-145.18;100.00;46636.94;5048525;28;20033;-70
2022/12/13 01:17:07;;;;;;;38.17;15.90;;;;;;;-145.18;100.00;46638.91;5052580;28;20072;-70
2022/12/13 01:19:33;;;;;;;39.20;15.07;;;;;;;-145.18;100.00;46640.88;5047587;28;20045;-70
2022/12/13 01:22:04;;;;;;;34.30;15.63;;;;;;;-145.18;100.00;46638.91;5052140;28;20037;-70
2022/12/13 01:24:30;;;;;;;33.67;16.08;;;;;;;-145.18;100.00;46660.41;5037282;28;20037;-70
2022/12/13 01:26:56;;;;;;;32.03;14.90;;;;;;;-145.18;100.00;46660.41;5032217;28;20056;-70
2022/12/13 01:29:23;;;;;;;41.60;16.40;;;;;;;-145.18;100.00;46660.41;5032573;28;20096;-70
2022/12/13 01:31:48;;;;;;;35.25;15.52;;;;;;;-145.18;100.00;46660.41;5032276;28;20048;-70
2022/12/13 01:34:16;;;;;;;30.43;14.97;;;;;;;-145.18;100.00;46660.41;5044824;28;20073;-70
2022/12/13 01:36:43;;;;;;;36.78;16.05;;;;;;;-145.18;100.00;46660.41;5051772;28;20037;-70
2022/12/13 01:39:11;;;;;;;38.20;15.70;;;;;;;-145.18;100.00;46660.41;5049478;28;20037;-70
2022/12/13 01:41:37;;;;;;;30.90;15.68;;;;;;;-145.18;100.00;46660.41;5031998;28;20593;-70
2022/12/13 01:44:06;;;;;;;36.63;16.40;;;;;;;-145.18;100.00;46660.41;5042752;28;20041;-70
2022/12/13 01:46:33;;;;;;;35.08;15.68;;;;;;;-145.18;100.00;46660.41;5051805;28;20120;-70
2022/12/13 01:49:09;;;;;;;39.65;15.82;;;;;;;-145.18;100.00;46660.41;5051652;28;20036;-70
2022/12/13 01:51:45;;;;;;;40.00;17.42;;;;;;;-145.18;100.00;46660.41;5051528;28;20040;-70
2022/12/13 01:54:15;;;;;;;39.28;17.05;;;;;;;-145.18;100.00;46660.41;5040099;28;20068;-70
2022/12/13 01:56:48;;;;;;;39.45;17.02;;;;;;;-145.18;100.00;46660.41;5031726;28;20025;-70
2022/12/13 01:59:16;;;;;;;38.10;16.90;;;;;;;-145.18;100.00;46660.41;5036942;28;20036;-70
2022/12/13 02:01:43;;;;;;;35.53;15.63;;;;;;;-145.18;100.00;46660.41;5051233;28;20028;-70
2022/12/13 02:04:08;;;;;;;43.13;17.67;;;;;;;-145.18;100.00;46660.41;5040267;28;20106;-70
2022/12/13 02:06:43;;;;;;;32.60;16.17;;;;;;;-145.18;100.00;46660.41;5031722;28;20042;-70
2022/12/13 02:09:10;;;;;;;25.05;11.60;;;;;;;-145.18;100.00;46660.41;5032156;28;20048;-70
2022/12/13 02:11:38;;;;;;;32.50;15.55;;;;;;;-145.18;100.00;46660.41;5031542;28;20037;-70
2022/12/13 02:14:04;;;;;;;36.10;16.27;;;;;;;-145.18;100.00;46660.41;5041700;28;20032;-70
2022/12/13 02:16:59;;;;;;;33.20;15.48;;;;;;;-145.18;100.00;46660.41;5051178;28;20108;-70
2022/12/13 02:19:52;;;;;;;40.83;17.17;;;;;;;-145.18;100.00;46660.41;5042481;28;20402;-70
2022/12/13 02:23:02;;;;;;;36.63;15.45;;;;;;;-145.18;100.00;46660.41;5031112;28;20031;-70
2022/12/13 02:25:52;;;;;;;37.78;15.93;;;;;;;-145.18;100.00;46660.41;4978319;28;20525;-69
2022/12/13 02:28:38;;;;;;;37.10;17.00;;;;;;;-145.18;100.00;46660.41;5011639;28;20129;-69
2022/12/13 02:31:16;;;;;;;38.50;15.82;;;;;;;-145.18;100.00;46660.41;5030571;28;20065;-70
2022/12/13 02:33:51;;;;;;;45.10;15.82;;;;;;;-145.18;100.00;46660.41;5037274;28;20036;-70
2022/12/13 02:36:31;;;;;;;42.35;17.33;;;;;;;-145.18;100.00;46660.41;5049543;28;20049;-70
2022/12/13 02:39:02;;;;;;;37.38;16.42;;;;;;;-145.18;100.00;46660.41;5043512;28;20033;-70
2022/12/13 02:41:47;;;;;;;50.35;18.13;;;;;;;-145.18;100.00;46660.41;5031236;28;20051;-70
2022/12/13 02:44:18;;;;;;;40.23;17.27;;;;;;;-145.18;100.00;46660.41;5040764;28;20425;-69
2022/12/13 02:46:54;;;;;;;41.70;17.70;;;;;;;-145.18;100.00;46658.44;5017740;28;20033;-70
2022/12/13 02:49:22;;;;;;;39.28;17.27;;;;;;;-145.18;100.00;46660.41;5024132;28;20509;-70
2022/12/13 02:51:50;;;;;;;42.72;17.77;;;;;;;-145.18;100.00;46660.41;5030686;28;20032;-70
2022/12/13 02:54:16;;;;;;;43.97;19.25;;;;;;;-145.18;100.00;46660.41;5041644;28;20043;-70
2022/12/13 02:56:41;;;;;;;39.20;17.83;;;;;;;-145.18;100.00;46660.41;5050483;28;20032;-70
2022/12/13 02:59:12;;;;;;;38.17;18.37;;;;;;;-145.18;100.00;46660.41;5039683;28;20060;-70
2022/12/13 03:01:43;;;;;;;45.92;18.02;;;;;;;-145.18;100.00;46660.41;5277552;22;20183;-82
2022/12/13 03:04:32;;;;;;;39.97;17.70;;;;;;;-145.18;100.00;46638.91;5026422;22;20125;-69
2022/12/13 03:07:20;;;;;;;43.47;18.25;;;;;;;-145.18;100.00;46642.81;5015044;28;20029;-69
2022/12/13 03:10:04;;;;;;;42.08;18.02;;;;;;;-145.18;100.00;46638.91;5020987;28;20068;-69
2022/12/13 03:15:55;;;;;;;49.22;17.70;;;;;;;-145.18;100.00;46646.72;5050598;28;20071;-69
2022/12/13 03:18:23;;;;;;;41.97;17.20;;;;;;;-145.18;100.00;46644.78;5049966;28;20033;-70
2022/12/13 03:20:52;;;;;;;43.13;18.02;;;;;;;-145.18;100.00;46640.88;5050111;28;20041;-70
2022/12/13 03:23:20;;;;;;;36.85;18.15;;;;;;;-145.18;100.00;46638.91;5050520;28;20068;-70
2022/12/13 03:25:49;;;;;;;42.15;17.98;;;;;;;-145.18;100.00;46650.63;5050389;28;20033;-70
2022/12/13 03:28:15;;;;;;;41.40;18.60;;;;;;;-145.18;100.00;46656.50;5049850;28;20028;-69
2022/12/13 03:30:40;;;;;;;36.53;17.67;;;;;;;-145.18;100.00;46664.31;5049878;28;20064;-69
2022/12/13 03:33:06;;;;;;;38.63;17.80;;;;;;;-145.18;100.00;46658.44;5049849;28;20041;-69
2022/12/13 03:35:32;;;;;;;44.43;19.27;;;;;;;-145.18;100.00;46677.97;5050333;28;20029;-70
2022/12/13 03:38:00;;;;;;;42.05;18.27;;;;;;;-145.18;100.00;46681.88;5049604;28;20116;-70
2022/12/13 03:40:27;;;;;;;51.67;19.55;;;;;;;-145.18;100.00;46691.66;5049862;28;20041;-70
2022/12/13 03:42:52;;;;;;;47.15;18.85;;;;;;;-145.18;100.00;46693.59;5049987;28;20037;-69
2022/12/13 03:45:19;;;;;;;48.50;19.23;;;;;;;-145.18;100.00;46699.47;5050327;28;20499;-69
2022/12/13 03:47:45;;;;;;;45.65;19.58;;;;;;;-145.18;100.00;46707.28;5050134;28;20033;-69
2022/12/13 03:50:10;;;;;;;40.90;17.90;;;;;;;-145.18;100.00;46709.22;5049784;28;20391;-70
2022/12/13 03:52:35;;;;;;;39.83;19.83;;;;;;;-145.18;100.00;46707.28;5049859;28;20108;-69
2022/12/13 03:55:01;;;;;;;46.37;20.13;;;;;;;-145.18;100.00;46705.31;5032039;28;20067;-70
2022/12/13 03:57:26;;;;;;;48.67;20.77;;;;;;;-145.18;100.00;46709.22;5049749;28;20032;-70
2022/12/13 03:59:51;;;;;;;46.17;20.00;;;;;;;-145.18;100.00;46726.81;5031801;28;20492;-70
2022/12/13 04:02:17;;;;;;;52.87;20.80;;;;;;;-145.18;100.00;46724.84;5038394;28;20064;-70
2022/12/13 04:04:42;;;;;;;47.17;18.97;;;;;;;-145.18;100.00;46734.63;5030231;28;20036;-70
2022/12/13 04:07:08;;;;;;;46.57;19.17;;;;;;;-145.18;100.00;46728.75;5029737;28;20032;-69
2022/12/13 04:09:33;;;;;;;52.03;18.83;;;;;;;-145.18;100.00;46728.75;5029712;28;20041;-69
2022/12/13 04:14:42;;;;;;;45.47;20.25;;;;;;;-145.18;100.00;46728.75;5030008;28;20040;-70
2022/12/13 04:17:07;;;;;;;48.27;20.47;;;;;;;-145.18;100.00;46734.63;5029609;28;20662;-69
2022/12/13 04:19:33;;;;;;;51.17;21.17;;;;;;;-145.18;100.00;46736.56;5029323;28;20128;-69
2022/12/13 04:21:58;;;;;;;47.77;19.70;;;;;;;-145.18;100.00;46736.56;5029459;28;20064;-69
2022/12/13 04:24:24;;;;;;;41.97;19.00;;;;;;;-145.18;100.00;46736.56;5029674;28;20034;-69
2022/12/13 04:26:49;;;;;;;46.20;18.93;;;;;;;-145.18;100.00;46738.53;5029687;28;20038;-69
2022/12/13 04:29:15;;;;;;;44.30;19.47;;;;;;;-145.18;100.00;46734.63;5029190;28;20500;-69
2022/12/13 04:31:40;;;;;;;46.13;20.27;;;;;;;-145.18;100.00;46732.66;5029504;28;20025;-69
2022/12/13 04:34:05;;;;;;;42.97;18.60;;;;;;;-145.18;100.00;46734.63;5029375;28;20121;-69
2022/12/13 04:36:31;;;;;;;47.07;18.60;;;;;;;-145.18;100.00;46734.63;5029702;28;20532;-69
2022/12/13 04:38:56;;;;;;;42.87;18.00;;;;;;;-145.18;100.00;46734.63;5029048;28;20033;-69
2022/12/13 04:41:22;;;;;;;42.60;18.23;;;;;;;-145.18;100.00;46736.56;5030107;28;20044;-69
2022/12/13 04:43:51;;;;;;;41.80;18.87;;;;;;;-145.18;100.00;46728.75;5029550;28;20058;-69
2022/12/13 04:46:18;;;;;;;41.50;18.58;;;;;;;-145.18;100.00;46740.47;5029339;28;20359;-69
2022/12/13 04:48:44;;;;;;;41.53;18.48;;;;;;;-145.18;100.00;46734.63;5029391;28;20113;-70
2022/12/13 04:51:09;;;;;;;39.50;18.97;;;;;;;-145.18;100.00;46734.63;5032834;28;20033;-69
2022/12/13 04:53:34;;;;;;;39.97;17.47;;;;;;;-145.18;100.00;46736.56;5033000;28;20120;-69
2022/12/13 04:56:02;;;;;;;46.23;18.57;;;;;;;-145.18;100.00;46732.66;5032663;28;20041;-70
2022/12/13 04:58:27;;;;;;;44.28;18.15;;;;;;;-145.18;100.00;46728.75;5032543;28;20670;-69
2022/12/13 05:00:53;;;;;;;37.33;17.00;;;;;;;-145.18;100.00;46732.66;5032656;28;20037;-70
2022/12/13 05:03:18;;;;;;;44.60;17.77;;;;;;;-145.18;100.00;46726.81;5032580;28;20060;-70
2022/12/13 05:05:43;;;;;;;45.80;17.93;;;;;;;-145.18;100.00;46732.66;5032835;28;20497;-69
2022/12/13 05:08:09;;;;;;;43.37;19.47;;;;;;;-145.18;100.00;46732.66;5032520;28;20034;-70
2022/12/13 05:10:34;;;;;;;40.37;17.93;;;;;;;-145.18;100.00;46736.56;5032189;28;20033;-70
2022/12/13 05:13:01;;;;;;;43.77;19.17;;;;;;;-145.18;100.00;46732.66;5032477;28;20116;-69
2022/12/13 05:15:26;;;;;;;45.03;18.05;;;;;;;-145.18;100.00;46726.81;5032728;28;20417;-69
2022/12/13 05:17:52;;;;;;;46.67;19.67;;;;;;;-145.18;100.00;46738.53;5032489;28;20040;-69
2022/12/13 05:20:17;;;;;;;45.50;19.50;;;;;;;-145.18;100.00;46732.66;5032170;28;20030;-70
2022/12/13 05:22:43;;;;;;;44.23;19.03;;;;;;;-145.18;100.00;46732.66;5032417;28;20032;-69
2022/12/13 05:25:09;;;;;;;45.20;19.33;;;;;;;-145.18;100.00;46734.63;5032391;28;20029;-69
2022/12/13 05:27:34;;;;;;;43.17;18.20;;;;;;;-145.18;100.00;46732.66;5028758;28;20349;-69
2022/12/13 05:29:59;;;;;;;48.17;19.07;;;;;;;-145.18;100.00;46734.63;5025443;28;20034;-69
2022/12/13 05:32:25;;;;;;;45.83;18.77;;;;;;;-145.18;100.00;46728.75;5015138;28;20482;-69
2022/12/13 05:34:50;;;;;;;49.03;19.67;;;;;;;-145.18;100.00;46728.75;5026257;28;20080;-69
2022/12/13 05:37:16;;;;;;;44.67;19.40;;;;;;;-145.18;100.00;46732.66;5025712;28;20549;-69
2022/12/13 05:39:41;;;;;;;41.10;19.03;;;;;;;-145.18;100.00;46734.63;5031182;28;20029;-69
2022/12/13 05:42:08;;;;;;;41.70;18.77;;;;;;;-145.18;100.00;46734.63;5017976;28;20041;-69
2022/12/13 05:44:33;;;;;;;48.13;18.05;;;;;;;-145.18;100.00;46730.72;5032050;28;20021;-69
2022/12/13 05:46:59;;;;;;;48.23;19.67;;;;;;;-145.18;100.00;46726.81;5025001;28;20124;-69
2022/12/13 05:49:24;;;;;;;42.27;18.80;;;;;;;-145.18;100.00;46732.66;5027283;28;20069;-70
2022/12/13 05:51:50;;;;;;;44.10;19.20;;;;;;;-145.18;100.00;46724.84;5031861;28;20044;-69
2022/12/13 05:54:15;;;;;;;39.37;18.50;;;;;;;-145.18;100.00;46726.81;5015210;28;20061;-70
2022/12/13 05:56:40;;;;;;;45.93;19.37;;;;;;;-145.18;100.00;46728.75;5019985;28;20026;-70
2022/12/13 05:59:06;;;;;;;44.57;19.07;;;;;;;-145.18;100.00;46732.66;5015773;28;20076;-69
2022/12/13 06:01:31;;;;;;;41.97;18.27;;;;;;;-145.18;100.00;46728.75;5013465;28;20080;-70
2022/12/13 06:03:56;;;;;;;40.67;17.97;;;;;;;-145.18;100.00;46728.75;5011280;28;20457;-70
2022/12/13 06:06:22;;;;;;;41.60;19.30;;;;;;;-145.18;100.00;46732.66;5012180;28;20487;-70
2022/12/13 06:08:47;;;;;;;44.03;17.33;;;;;;;-145.18;100.00;46732.66;5011667;28;20072;-70
2022/12/13 06:11:14;;;;;;;40.23;17.53;;;;;;;-145.18;100.00;46726.81;5030803;28;20041;-70
2022/12/13 06:13:41;;;;;;;43.67;18.67;;;;;;;-145.18;100.00;46724.84;5031630;28;20042;-70
2022/12/13 06:16:06;;;;;;;46.58;19.02;;;;;;;-145.18;100.00;46724.84;5031256;28;20038;-70
2022/12/13 06:18:34;;;;;;;40.33;18.07;;;;;;;-145.18;100.00;46726.81;5031239;28;20040;-70
2022/12/13 06:21:03;;;;;;;46.47;19.17;;;;;;;-145.18;100.00;46726.81;5030707;28;20038;-70
2022/12/13 06:23:30;;;;;;;41.47;18.90;;;;;;;-145.18;100.00;46732.66;5031420;28;20025;-69
2022/12/13 06:25:56;;;;;;;45.35;18.42;;;;;;;-145.18;100.00;46728.75;5030982;28;20087;-70
2022/12/13 06:28:21;;;;;;;39.50;16.60;;;;;;;-145.18;100.00;46726.81;5013660;28;20084;-69
2022/12/13 06:30:51;;;;;;;44.00;18.40;;;;;;;-145.18;100.00;46719.00;5030732;28;20040;-70
2022/12/13 06:33:17;;;;;;;39.25;18.00;;;;;;;-145.18;100.00;46720.94;5030679;28;20029;-70
2022/12/13 06:35:42;;;;;;;41.95;18.70;;;;;;;-145.18;100.00;46711.19;5025382;28;20029;-70
2022/12/13 06:38:07;;;;;;;38.73;17.67;;;;;;;-145.18;100.00;46707.28;5018392;28;20504;-70
2022/12/13 06:40:33;;;;;;;45.40;19.37;;;;;;;-145.18;100.00;46703.38;5026169;28;20084;-70
2022/12/13 06:42:58;;;;;;;45.47;20.07;;;;;;;-145.18;100.00;46707.28;5027708;28;20113;-70
2022/12/13 06:45:24;;;;;;;41.30;18.07;;;;;;;-145.18;100.00;46707.28;5020025;28;20068;-70
2022/12/13 06:47:50;;;;;;;36.65;18.17;;;;;;;-145.18;100.00;46703.38;5020374;28;20026;-69
2022/12/13 06:50:15;;;;;;;45.17;19.27;;;;;;;-145.18;100.00;46699.47;5019434;28;20048;-70
2022/12/13 06:52:41;;;;;;;44.67;19.37;;;;;;;-145.18;100.00;46703.38;5017082;28;20224;-69
2022/12/13 06:55:06;;;;;;;44.77;19.50;;;;;;;-145.18;100.00;46703.38;5022151;28;20409;-69
2022/12/13 06:57:32;;;;;;;43.43;18.37;;;;;;;-145.18;100.00;46701.41;5025136;28;20037;-69
2022/12/13 06:59:59;;;;;;;44.20;17.45;;;;;;;-145.18;100.00;46699.47;5028545;28;20041;-70
2022/12/13 07:02:24;;;;;;;44.15;18.40;;;;;;;-145.18;100.00;46703.38;5015267;28;20509;-70
2022/12/13 07:04:50;;;;;;;39.43;17.37;;;;;;;-145.18;100.00;46707.28;5001401;28;20042;-70
2022/12/13 07:07:15;;;;;;;41.77;18.53;;;;;;;-145.18;100.00;46701.41;5022115;28;20033;-70
2022/12/13 07:09:40;;;;;;;37.83;18.10;;;;;;;-145.18;100.00;46703.38;5021907;28;20045;-70
2022/12/13 07:12:06;;;;;;;38.87;17.83;;;;;;;-145.18;100.00;46701.41;5017397;28;20136;-69
2022/12/13 07:14:31;;;;;;;49.87;20.17;;;;;;;-145.18;100.00;46701.41;5024002;28;20633;-70
2022/12/13 07:16:58;;;;;;;41.77;18.33;;;;;;;-145.18;100.00;46693.59;5029348;28;20045;-70
2022/12/13 07:19:23;;;;;;;41.17;17.98;;;;;;;-145.18;100.00;46693.59;5030067;28;20065;-70
2022/12/13 07:21:48;;;;;;;41.93;19.37;;;;;;;-145.18;100.00;46687.75;5030394;28;20061;-69
2022/12/13 07:24:14;;;;;;;39.60;17.87;;;;;;;-145.18;100.00;46681.88;5029699;28;20571;-69
2022/12/13 07:26:39;;;;;;;51.53;21.00;;;;;;;-145.18;100.00;46679.94;5030344;28;20048;-69
2022/12/13 07:29:04;;;;;;;44.13;21.37;;;;;;;-145.18;100.00;46666.25;5029846;28;20037;-70
2022/12/13 07:31:30;;;;;;;38.07;17.90;;;;;;;-145.18;100.00;46662.34;5029617;28;20096;-69
2022/12/13 07:33:55;;;;;;;42.23;19.43;;;;;;;-145.18;100.00;46664.31;5028819;28;20111;-70
2022/12/13 07:36:22;;;;;;;50.33;18.97;;;;;;;-145.18;100.00;46656.50;5030271;28;20470;-70
2022/12/13 07:38:56;;;;;;;49.35;17.95;;;;;;;-145.18;100.00;46658.44;5029627;28;20030;-70
2022/12/13 07:41:25;;;;;;;47.53;19.45;;;;;;;-145.18;100.00;46662.34;5029531;28;20038;-69
2022/12/13 07:43:51;;;;;;;44.28;19.02;;;;;;;-145.18;100.00;46664.31;5030001;28;20044;-70
2022/12/13 07:46:17;;;;;;;44.30;18.52;;;;;;;-145.18;100.00;46656.50;5029830;28;20539;-69
2022/12/13 07:48:42;;;;;;;41.77;18.93;;;;;;;-145.18;100.00;46666.25;5029798;28;20025;-69
2022/12/13 07:51:10;;;;;;;51.83;21.50;;;;;;;-145.18;100.00;46664.31;5029581;28;20046;-69
2022/12/13 07:53:36;;;;;;;55.38;21.20;;;;;;;-145.18;100.00;46648.69;5029311;28;20045;-70
2022/12/13 07:56:08;;;;;;;59.65;24.52;;;;;;;-145.18;100.00;46644.78;5029503;28;20036;-69
2022/12/13 07:58:33;;;;;;;57.40;22.08;;;;;;;-145.18;100.00;46644.78;4994049;28;20041;-69
2022/12/13 08:01:01;;;;;;;45.93;20.90;;;;;;;-145.18;100.00;46638.91;5020763;28;20034;-69
2022/12/13 08:03:27;;;;;;;50.47;18.92;;;;;;;-145.18;100.00;46640.88;5029534;28;20466;-69
2022/12/13 08:05:59;;;;;;;44.85;19.98;;;;;;;-145.18;100.00;46627.19;5029613;28;20029;-69
2022/12/13 08:08:25;;;;;;;48.75;20.55;;;;;;;-145.18;100.00;46660.41;5029672;28;20025;-69
2022/12/13 08:10:50;;;;;;;42.57;18.57;;;;;;;-145.18;100.00;46623.28;5029372;28;20087;-69
2022/12/13 08:13:15;;;;;;;45.80;18.50;;;;;;;-145.18;100.00;46623.28;5029306;28;20041;-69
2022/12/13 08:15:41;;;;;;;50.17;20.80;;;;;;;-145.18;100.00;46623.28;5029624;28;20478;-70
2022/12/13 08:18:06;;;;;;;51.40;20.90;;;;;;;-145.18;100.00;46633.06;5029042;28;20686;-70
2022/12/13 08:20:32;;;;;;;50.47;21.57;;;;;;;-145.18;100.00;46646.72;5029122;28;20449;-69
2022/12/13 08:22:58;;;;;;;46.50;20.47;;;;;;;-145.18;100.00;46640.88;5011887;28;20033;-69
2022/12/13 08:25:24;;;;;;;51.78;23.23;;;;;;;-145.18;100.00;46631.09;5032822;28;20025;-70
2022/12/13 08:27:49;;;;;;;48.78;21.23;;;;;;;-145.18;100.00;46635.00;5032336;28;20045;-69
2022/12/13 08:30:15;;;;;;;53.37;21.30;;;;;;;-145.18;100.00;46629.13;5031746;28;20371;-69
2022/12/13 08:32:41;;;;;;;54.13;22.43;;;;;;;-145.18;100.00;46627.19;5032489;28;20034;-70
2022/12/13 08:35:06;;;;;;;54.03;22.77;;;;;;;-145.18;100.00;46629.13;5032046;28;20068;-70
2022/12/13 08:37:32;;;;;;;48.83;20.47;;;;;;;-145.18;100.00;46621.31;5032456;28;20029;-69
2022/12/13 08:39:57;;;;;;;56.00;21.43;;;;;;;-145.18;100.00;46615.47;5031618;28;20045;-69
2022/12/13 08:42:24;;;;;;;50.13;22.67;;;;;;;-145.18;100.00;46601.78;5032482;28;20034;-69
2022/12/13 08:44:51;;;;;;;53.85;22.48;;;;;;;-145.18;100.00;46607.66;5032242;28;20037;-70
2022/12/13 08:47:17;;;;;;;47.17;20.85;;;;;;;-145.18;100.00;46597.88;5032132;28;20034;-70
2022/12/13 08:49:43;;;;;;;47.72;21.15;;;;;;;-145.18;100.00;46595.94;5032146;28;20370;-69
2022/12/13 08:52:08;;;;;;;52.23;24.07;;;;;;;-145.18;100.00;46595.94;5032132;28;20038;-70
2022/12/13 08:54:34;;;;;;;53.73;23.07;;;;;;;-145.18;100.00;46601.78;5031241;28;20371;-70
2022/12/13 08:56:59;;;;;;;48.87;21.23;;;;;;;-145.18;100.00;46593.97;5031505;28;20456;-70
2022/12/13 08:59:25;;;;;;;55.50;23.43;;;;;;;-145.18;100.00;46593.97;5031949;28;20060;-70
2022/12/13 09:01:51;;;;;;;56.83;23.70;;;;;;;-145.18;100.00;46597.88;5031783;28;20035;-70
2022/12/13 09:04:16;;;;;;;56.80;24.27;;;;;;;-145.18;100.00;46599.84;5032456;28;20040;-70
2022/12/13 09:06:42;;;;;;;60.63;24.50;;;;;;;-145.18;100.00;46588.13;5032727;28;20117;-70
2022/12/13 09:09:08;;;;;;;58.83;25.13;;;;;;;-145.18;100.00;46593.97;5032195;28;20037;-70
2022/12/13 09:11:33;;;;;;;58.27;24.70;;;;;;;-145.18;100.00;46595.94;5032483;28;20481;-70
2022/12/13 09:13:59;;;;;;;59.43;25.77;;;;;;;-145.18;100.00;46597.88;5031935;28;20040;-70
2022/12/13 09:16:24;;;;;;;58.43;25.43;;;;;;;-145.18;100.00;46601.78;5031198;28;20045;-70
2022/12/13 09:18:53;;;;;;;68.27;26.23;;;;;;;-145.18;100.00;46597.88;5032317;28;20030;-70
2022/12/13 09:21:19;;;;;;;64.20;25.50;;;;;;;-145.18;100.00;46599.84;5031956;28;20025;-70
2022/12/13 09:23:44;;;;;;;61.10;26.10;;;;;;;-145.18;100.00;46595.94;5032142;28;20044;-70
2022/12/13 09:26:12;;;;;;;57.50;25.57;;;;;;;-145.18;100.00;46599.84;5032378;28;20109;-70
2022/12/13 09:28:38;;;;;;;60.05;26.52;;;;;;;-145.18;100.00;46595.94;5032427;28;20033;-70
2022/12/13 09:31:08;;;;;;;60.37;26.93;;;;;;;-145.18;100.00;46599.84;5031826;28;20398;-71
2022/12/13 09:33:33;;;;;;;65.82;29.92;;;;;;;-145.18;100.00;46601.78;5031927;28;20279;-70
2022/12/13 09:36:04;;;;;;;67.73;28.27;;;;;;;-145.18;100.00;46605.69;5031478;28;20047;-71
2022/12/13 09:38:30;;;;;;;63.88;27.55;;;;;;;-145.18;100.00;46605.69;5031998;28;20030;-71
2022/12/13 09:40:59;;;;;;;68.30;28.17;;;;;;;-145.18;100.00;46599.84;5031722;28;20113;-71
2022/12/13 09:43:32;;;;;;;63.90;28.48;;;;;;;-145.18;100.00;46597.88;5031191;28;20109;-71
2022/12/13 09:46:03;;;;;;;59.80;27.77;;;;;;;-145.18;100.00;46601.78;5030850;28;20092;-71
2022/12/13 09:48:28;;;;;;;62.15;28.38;;;;;;;-145.18;100.00;46603.75;5030242;28;20441;-72
2022/12/13 09:50:53;;;;;;;73.73;31.40;;;;;;;-145.18;100.00;46601.78;5031525;28;20030;-73
2022/12/13 09:53:19;;;;;;;58.27;27.63;;;;;;;-145.18;100.00;46609.59;5030587;28;20429;-74
2022/12/13 09:55:48;;;;;;;68.93;31.13;;;;;;;-145.18;100.00;46607.66;5028686;28;20038;-74
2022/12/13 09:58:20;;;;;;;67.05;30.42;;;;;;;-145.18;100.00;46611.56;5025428;28;20553;-75
2022/12/13 10:00:48;;;;;;;68.15;29.88;;;;;;;-145.18;100.00;46607.66;5031034;28;20037;-75
2022/12/13 10:03:16;;;;;;;72.70;31.35;;;;;;;-145.18;100.00;46599.84;5029966;28;20103;-75
2022/12/13 10:05:57;;;;;;;62.10;29.25;;;;;;;-145.18;100.00;46597.88;5031314;28;20548;-75
2022/12/13 10:08:34;;;;;;;74.90;32.55;;;;;;;-145.18;100.00;46590.06;5031521;28;20069;-75
2022/12/13 10:11:00;;;;;;;68.40;29.25;;;;;;;-145.18;100.00;46593.97;5031240;28;20035;-75
2022/12/13 10:13:40;;;;;;;65.33;28.87;;;;;;;-145.18;100.00;46588.13;5013477;28;20038;-75
2022/12/13 10:16:14;;;;;;;67.40;29.63;;;;;;;-145.18;100.00;46586.16;5030850;28;20025;-74
2022/12/13 10:18:42;;;;;;;66.25;29.50;;;;;;;-145.18;100.00;46586.16;5030869;28;20504;-74
2022/12/13 10:21:16;;;;;;;62.55;29.58;;;;;;;-145.18;100.00;46590.06;5031078;28;20029;-74
2022/12/13 10:23:42;;;;;;;61.08;28.98;;;;;;;-145.18;100.00;46590.06;5031124;28;20022;-74
2022/12/13 10:26:12;;;;;;;62.10;27.07;;;;;;;-145.18;100.00;46592.03;5030329;28;20048;-74
2022/12/13 10:28:38;;;;;;;65.78;28.83;;;;;;;-145.18;100.00;46586.16;5031012;28;20778;-74
2022/12/13 10:31:05;;;;;;;60.75;28.55;;;;;;;-145.18;100.00;46597.88;5031063;28;20391;-74
2022/12/13 10:33:33;;;;;;;62.10;27.83;;;;;;;-145.18;100.00;46595.94;5030604;28;20433;-75
2022/12/13 10:36:07;;;;;;;59.72;27.60;;;;;;;-145.18;100.00;46603.75;5030838;28;20039;-75
2022/12/13 10:38:41;;;;;;;57.22;26.58;;;;;;;-145.18;100.00;46603.75;5030469;28;20174;-77
2022/12/13 10:41:37;;;;;;;59.53;28.60;;;;;;;-145.18;100.00;46615.47;5030683;28;20095;-77
2022/12/13 10:44:24;;;;;;;59.40;27.20;;;;;;;-145.18;100.00;46623.28;5030679;28;20105;-77
2022/12/13 10:47:02;;;;;;;60.28;26.65;;;;;;;-145.18;100.00;46638.91;5028872;28;20512;-77
2022/12/13 10:49:46;;;;;;;54.58;25.85;;;;;;;-145.18;100.00;46652.59;5030635;28;20037;-77
2022/12/13 10:52:40;;;;;;;53.70;25.85;;;;;;;-145.18;100.00;46662.34;5030112;28;20445;-76
2022/12/13 10:55:23;;;;;;;50.55;25.05;;;;;;;-145.18;100.00;46672.13;5027630;28;20041;-76
2022/12/13 10:57:52;;;;;;;53.17;25.83;;;;;;;-145.18;100.00;46674.06;5030531;28;20033;-76
2022/12/13 11:00:36;;;;;;;54.85;27.17;;;;;;;-145.18;100.00;46683.84;5016828;28;20098;-75
2022/12/13 11:03:03;;;;;;;55.03;25.38;;;;;;;-145.18;100.00;46703.38;5030268;28;20593;-75
2022/12/13 11:05:32;;;;;;;55.35;25.05;;;;;;;-145.18;100.00;46693.59;5029685;28;20033;-75